createdAt,value
2019-04-30T00:04:55.297Z,101529.53
2019-04-30T00:10:02.549Z,101531.49
2019-04-30T00:15:11.098Z,101529.09
2019-04-30T00:20:18.445Z,101525.45
2019-04-30T00:25:28.588Z,101513.18
2019-04-30T00:30:39.334Z,101513.18
2019-04-30T00:35:45.392Z,101508.11
2019-04-30T00:40:52.448Z,101510.84
2019-04-30T00:45:59.452Z,101510.02
2019-04-30T00:51:07.527Z,101508.88
2019-04-30T00:56:19.996Z,101506.89
2019-04-30T01:01:43.591Z,101506.77
2019-04-30T01:06:47.825Z,101513.59
2019-04-30T01:11:55.301Z,101508.35
2019-04-30T01:17:03.916Z,101499.62
2019-04-30T01:22:11.434Z,101506.11
2019-04-30T01:27:20.275Z,101504.69
2019-04-30T01:32:28.728Z,101498.52
2019-04-30T01:37:39.292Z,101507.03
2019-04-30T01:42:48.681Z,101496.48
2019-04-30T01:48:00.624Z,101493.92
2019-04-30T01:53:04.747Z,101497.20
2019-04-30T01:58:33.349Z,101498.48
2019-04-30T02:03:40.452Z,101493.36
2019-04-30T02:08:49.277Z,101493.36
2019-04-30T02:13:56.577Z,101492.50
2019-04-30T02:19:04.580Z,101495.41
2019-04-30T02:24:11.590Z,101502.81
2019-04-30T02:29:19.109Z,101500.48
2019-04-30T02:34:39.823Z,101500.48
2019-04-30T02:39:46.114Z,101507.52
2019-04-30T02:44:54.123Z,101511.56
2019-04-30T02:50:15.227Z,101502.09
2019-04-30T02:55:19.468Z,101506.78
2019-04-30T03:00:32.527Z,101504.54
2019-04-30T03:05:35.588Z,101504.54
2019-04-30T03:10:42.568Z,101512.94
2019-04-30T03:15:49.530Z,101522.77
2019-04-30T03:21:21.265Z,101522.77
2019-04-30T03:26:29.628Z,101526.55
2019-04-30T03:31:35.731Z,101523.64
2019-04-30T03:36:42.608Z,101527.93
2019-04-30T03:41:50.134Z,101540.69
2019-04-30T03:46:59.290Z,101539.20
2019-04-30T03:52:06.484Z,101539.20
2019-04-30T03:57:13.508Z,101535.23
2019-04-30T04:02:40.480Z,101542.57
2019-04-30T04:08:05.237Z,101542.51
2019-04-30T04:13:13.061Z,101552.94
2019-04-30T04:18:20.482Z,101552.37
2019-04-30T04:23:32.863Z,101558.80
2019-04-30T04:28:42.506Z,101563.51
2019-04-30T04:33:45.918Z,101556.39
2019-04-30T04:38:52.593Z,101559.03
2019-04-30T04:44:00.239Z,101557.20
2019-04-30T04:49:06.312Z,101560.66
2019-04-30T04:54:13.458Z,101564.43
2019-04-30T04:59:20.562Z,101566.80
2019-04-30T05:04:29.816Z,101570.33
2019-04-30T05:09:37.467Z,101570.28
2019-04-30T05:14:44.446Z,101572.66
2019-04-30T05:19:51.440Z,101572.26
2019-04-30T05:24:58.985Z,101574.13
2019-04-30T05:30:07.061Z,101571.39
2019-04-30T05:35:14.565Z,101580.72
2019-04-30T05:40:21.580Z,101595.41
2019-04-30T05:45:30.595Z,101595.41
2019-04-30T05:50:39.073Z,101594.60
2019-04-30T05:55:46.431Z,101594.60
2019-04-30T06:00:53.447Z,101591.48
2019-04-30T06:06:00.503Z,101579.30
2019-04-30T06:11:12.264Z,101581.19
2019-04-30T06:16:23.269Z,101581.19
2019-04-30T06:21:30.507Z,101578.34
2019-04-30T06:26:39.352Z,101574.43
2019-04-30T06:31:48.517Z,101583.83
2019-04-30T06:36:57.123Z,101567.67
2019-04-30T06:42:10.161Z,101586.02
2019-04-30T06:47:14.613Z,101590.23
2019-04-30T06:52:23.519Z,101591.99
2019-04-30T06:57:30.439Z,101591.99
2019-04-30T07:02:39.304Z,101589.92
2019-04-30T07:08:09.285Z,101589.69
2019-04-30T07:13:29.688Z,101589.69
2019-04-30T07:18:38.660Z,101594.08
2019-04-30T07:23:45.893Z,101594.08
2019-04-30T07:28:55.353Z,101587.20
2019-04-30T07:34:01.462Z,101580.91
2019-04-30T07:39:10.081Z,101579.02
2019-04-30T07:44:31.157Z,101586.57
2019-04-30T07:49:45.944Z,101586.57
2019-04-30T07:54:34.315Z,101585.20
2019-04-30T07:59:41.431Z,101594.41
2019-04-30T08:05:03.259Z,101587.19
2019-04-30T08:10:10.041Z,101589.36
2019-04-30T08:15:19.761Z,101581.24
2019-04-30T08:20:29.702Z,101582.09
2019-04-30T08:25:36.594Z,101590.31
2019-04-30T08:30:45.635Z,101578.54
2019-04-30T08:35:52.599Z,101587.07
2019-04-30T08:41:00.855Z,101578.83
2019-04-30T08:46:09.430Z,101578.83
2019-04-30T08:51:19.253Z,101575.63
2019-04-30T08:56:26.445Z,101582.89
2019-04-30T09:01:33.590Z,101586.20
2019-04-30T09:06:40.558Z,101562.66
2019-04-30T09:11:53.062Z,101562.66
2019-04-30T09:16:56.486Z,101566.78
2019-04-30T09:22:03.480Z,101547.18
2019-04-30T09:27:10.882Z,101559.28
2019-04-30T09:32:19.284Z,101558.02
2019-04-30T09:37:26.567Z,101550.70
2019-04-30T09:42:33.555Z,101557.27
2019-04-30T09:47:42.065Z,101554.80
2019-04-30T09:52:49.959Z,101554.80
2019-04-30T09:57:58.891Z,101550.64
2019-04-30T10:03:07.521Z,101547.08
2019-04-30T10:08:15.464Z,101529.53
2019-04-30T10:13:22.478Z,101533.34
2019-04-30T10:18:29.560Z,101520.11
2019-04-30T10:23:36.476Z,101505.39
2019-04-30T10:28:46.284Z,101505.39
2019-04-30T10:33:52.658Z,101508.91
2019-04-30T10:38:59.694Z,101507.98
2019-04-30T10:44:08.904Z,101496.48
2019-04-30T10:49:16.105Z,101492.69
2019-04-30T10:54:26.359Z,101494.27
2019-04-30T10:59:31.332Z,101489.51
2019-04-30T11:04:37.302Z,101479.92
2019-04-30T11:09:43.322Z,101480.94
2019-04-30T11:14:51.587Z,101482.83
2019-04-30T11:19:59.200Z,101473.50
2019-04-30T11:25:07.416Z,101473.50
2019-04-30T11:30:21.361Z,101471.55
2019-04-30T11:35:25.268Z,101477.20
2019-04-30T11:47:25.461Z,101463.73
2019-04-30T11:52:32.626Z,101466.31
2019-04-30T11:57:41.056Z,101454.55
2019-04-30T12:02:52.598Z,101454.55
2019-04-30T12:08:02.413Z,101452.13
2019-04-30T12:13:24.330Z,101440.70
2019-04-30T12:18:31.573Z,101430.61
2019-04-30T12:23:38.612Z,101428.83
2019-04-30T12:32:25.688Z,101436.97
2019-04-30T12:37:32.670Z,101421.52
2019-04-30T12:42:39.779Z,101411.95
2019-04-30T12:47:51.881Z,101411.95
2019-04-30T12:53:04.258Z,101411.27
2019-04-30T12:58:12.266Z,101405.73
2019-04-30T13:03:20.598Z,101389.56
2019-04-30T13:12:21.770Z,101391.77
2019-04-30T13:22:48.854Z,101373.74
2019-04-30T13:28:03.054Z,101373.74
2019-04-30T13:38:01.539Z,101362.59
2019-04-30T13:45:53.667Z,101353.20
2019-04-30T13:58:16.373Z,101358.45
2019-04-30T14:03:38.961Z,101357.55
2019-04-30T14:08:50.579Z,101345.59
2019-04-30T14:13:59.679Z,101347.60
2019-04-30T14:19:10.957Z,101347.60
2019-04-30T14:30:09.365Z,101339.34
2019-04-30T14:35:19.364Z,101336.53
2019-04-30T14:40:30.376Z,101339.75
2019-04-30T14:45:56.670Z,101337.34
2019-04-30T14:51:04.730Z,101336.95
2019-04-30T14:56:20.334Z,101336.33
2019-04-30T15:01:37.431Z,101331.73
2019-04-30T15:10:05.367Z,101339.64
2019-04-30T15:18:54.841Z,101337.59
2019-04-30T15:26:57.678Z,101329.23
2019-04-30T15:32:03.632Z,101326.89
2019-04-30T15:39:43.320Z,101332.05
2019-04-30T15:44:50.612Z,101327.42
2019-04-30T15:53:31.844Z,101329.25
2019-04-30T15:58:40.316Z,101330.03
2019-04-30T16:03:48.422Z,101330.03
2019-04-30T16:08:58.863Z,101325.28
2019-04-30T16:18:55.252Z,101318.05
2019-04-30T16:24:01.417Z,101318.78
2019-04-30T16:29:09.817Z,101318.89
2019-04-30T16:34:16.573Z,101312.33
2019-04-30T16:40:21.445Z,101308.63
2019-04-30T16:50:41.668Z,101298.13
2019-04-30T16:57:15.572Z,101293.81
2019-04-30T17:02:24.476Z,101296.92
2019-04-30T17:07:42.254Z,101296.92
2019-04-30T17:14:25.853Z,101297.98
2019-04-30T17:19:32.728Z,101297.98
2019-04-30T17:24:39.781Z,101296.60
2019-04-30T17:29:46.583Z,101297.98
2019-04-30T17:34:53.655Z,101286.66
2019-04-30T17:40:00.604Z,101290.20
2019-04-30T17:49:29.701Z,101282.45
2019-04-30T17:58:37.505Z,101277.27
2019-04-30T18:03:44.698Z,101277.27
2019-04-30T18:08:52.314Z,101284.00
2019-04-30T18:14:23.931Z,101292.95
2019-04-30T18:24:00.853Z,101296.86
2019-04-30T18:29:07.603Z,101301.94
2019-04-30T18:39:26.374Z,101302.50
2019-04-30T18:44:33.563Z,101301.53
2019-04-30T18:51:42.632Z,101310.21
2019-04-30T18:56:48.985Z,101313.72
2019-04-30T19:01:56.465Z,101314.75
2019-04-30T19:11:33.209Z,101314.55
2019-04-30T19:20:49.585Z,101326.77
2019-04-30T19:25:59.565Z,101326.77
2019-04-30T19:31:09.226Z,101332.34
2019-04-30T19:36:18.331Z,101334.52
2019-04-30T19:42:00.914Z,101328.97
2019-04-30T19:47:09.315Z,101336.17
2019-04-30T19:52:19.003Z,101331.97
2019-04-30T19:57:25.460Z,101333.33
2019-04-30T20:05:43.660Z,101333.34
2019-04-30T20:13:33.087Z,101340.42
2019-04-30T20:19:01.657Z,101332.13
2019-04-30T20:24:08.581Z,101340.52
2019-04-30T20:29:15.600Z,101331.45
2019-04-30T20:38:54.270Z,101328.16
2019-04-30T20:44:06.641Z,101327.36
2019-04-30T20:54:34.249Z,101321.30
2019-04-30T20:59:44.264Z,101324.63
2019-04-30T21:04:51.481Z,101315.44
2019-04-30T21:14:02.314Z,101309.59
2019-04-30T21:28:29.757Z,101309.05
2019-04-30T21:33:47.732Z,101302.80
2019-04-30T21:40:20.022Z,101301.97
2019-04-30T21:45:29.166Z,101301.97
2019-04-30T21:50:40.611Z,101291.25
2019-04-30T21:58:09.799Z,101293.14
2019-04-30T22:03:16.770Z,101299.41
2019-04-30T22:08:23.723Z,101286.52
2019-04-30T22:13:30.669Z,101285.06
2019-04-30T22:24:31.276Z,101275.11
2019-04-30T22:36:38.828Z,101271.25
2019-04-30T22:46:19.742Z,101260.85
2019-04-30T22:51:26.647Z,101259.02
2019-04-30T23:01:44.307Z,101244.56
2019-04-30T23:06:51.636Z,101240.22
2019-04-30T23:11:58.585Z,101226.80
2019-04-30T23:17:06.254Z,101214.77
2019-04-30T23:22:13.448Z,101214.77
2019-04-30T23:27:20.449Z,101211.10
2019-04-30T23:32:27.649Z,101210.59
2019-04-30T23:37:34.573Z,101191.43
2019-04-30T23:42:41.601Z,101197.23
2019-04-30T23:47:48.584Z,101193.02
2019-04-30T23:53:00.291Z,101181.61
2019-04-30T23:58:07.567Z,101179.33
